createdAt,value
2023-05-10T06:56:02.638Z,25.00
2023-05-10T06:57:04.207Z,25.00
2023-05-10T06:58:11.186Z,25.00
2023-05-10T06:59:02.848Z,25.00
2023-05-10T07:00:02.808Z,25.00
2023-05-10T07:01:02.928Z,25.00
2023-05-10T07:02:02.893Z,25.00
2023-05-10T07:03:02.925Z,25.00
2023-05-10T07:04:02.838Z,0.00
2023-05-10T07:05:03.567Z,0.00
2023-05-10T07:06:02.812Z,0.00
2023-05-10T07:07:02.830Z,0.00
2023-05-10T07:08:02.900Z,0.00
2023-05-10T07:09:02.876Z,0.00
2023-05-10T07:10:02.924Z,0.00
2023-05-10T07:11:03.093Z,0.00
2023-05-10T07:12:02.963Z,0.00
2023-05-10T07:13:02.986Z,0.00
2023-05-10T07:14:02.973Z,0.00
2023-05-10T07:15:02.993Z,0.00
2023-05-10T07:16:03.054Z,0.00
2023-05-10T07:17:03.074Z,0.00
2023-05-10T07:18:03.140Z,0.00
2023-05-10T07:19:03.117Z,0.00
2023-05-10T07:20:03.092Z,0.00
2023-05-10T07:21:03.166Z,0.00
2023-05-10T07:22:03.212Z,0.00
2023-05-10T07:23:03.239Z,0.00
2023-05-10T07:24:03.254Z,12.85
2023-05-10T07:25:03.251Z,25.54
2023-05-10T07:26:03.297Z,24.12
2023-05-10T07:27:03.433Z,30.30
2023-05-10T07:28:03.356Z,26.36
2023-05-10T07:29:03.571Z,37.95
2023-05-10T07:30:03.381Z,45.95
2023-05-10T07:31:03.452Z,50.03
2023-05-10T07:32:03.537Z,33.16
2023-05-10T07:33:03.351Z,42.98
2023-05-10T07:34:03.364Z,58.19
2023-05-10T07:35:03.431Z,72.10
2023-05-10T07:36:03.553Z,77.42
2023-05-10T07:37:03.563Z,80.45
2023-05-10T07:38:03.637Z,80.54
2023-05-10T07:39:03.760Z,88.44
2023-05-10T07:40:03.905Z,93.10
2023-05-10T07:41:03.789Z,92.15
2023-05-10T07:42:03.813Z,91.41
2023-05-10T07:43:03.859Z,95.86
2023-05-10T07:44:03.897Z,96.05
2023-05-10T07:45:03.914Z,95.68
2023-05-10T07:46:04.014Z,92.55
2023-05-10T07:47:03.954Z,92.00
2023-05-10T07:48:04.055Z,95.14
2023-05-10T07:49:04.008Z,93.67
2023-05-10T07:50:04.422Z,93.45
2023-05-10T07:51:04.021Z,93.95
2023-05-10T07:52:03.945Z,94.60
2023-05-10T07:53:03.965Z,93.72
2023-05-10T07:54:03.982Z,92.91
2023-05-10T07:55:04.414Z,98.42
2023-05-10T07:56:04.040Z,93.65
2023-05-10T07:57:04.034Z,96.34
2023-05-10T07:58:04.084Z,95.01
2023-05-10T07:59:04.135Z,92.78
2023-05-10T08:00:04.414Z,92.57
2023-05-10T08:01:04.208Z,94.46
2023-05-10T08:02:04.285Z,90.01
2023-05-10T08:03:04.352Z,91.24
2023-05-10T08:04:04.425Z,91.19
2023-05-10T08:05:04.438Z,91.15
2023-05-10T08:06:04.528Z,92.70
2023-05-10T08:07:04.590Z,94.34
2023-05-10T08:08:04.666Z,94.62
2023-05-10T08:09:04.680Z,98.44
2023-05-10T08:10:04.742Z,94.15
2023-05-10T08:11:04.789Z,92.70
2023-05-10T08:12:04.830Z,84.88
2023-05-10T08:13:04.873Z,92.93
2023-05-10T08:14:04.918Z,91.41
2023-05-10T08:15:05.428Z,94.02
2023-05-10T08:16:05.115Z,86.88
2023-05-10T08:17:05.095Z,91.81
2023-05-10T08:18:05.182Z,97.45
2023-05-10T08:19:05.275Z,98.37
2023-05-10T08:20:05.435Z,98.18
2023-05-10T08:21:05.306Z,91.42
2023-05-10T08:22:05.359Z,0.00
2023-05-10T08:23:05.363Z,0.00
2023-05-10T08:24:05.358Z,0.00
2023-05-10T08:25:05.438Z,2.83
2023-05-10T08:26:05.448Z,34.29
2023-05-10T08:27:05.505Z,47.78
2023-05-10T08:28:05.503Z,81.34
2023-05-10T08:29:05.619Z,95.00
2023-05-10T08:30:05.597Z,103.91
2023-05-10T08:31:05.691Z,108.36
2023-05-10T08:32:05.654Z,137.25
2023-05-10T08:33:05.723Z,153.00
2023-05-10T08:34:05.708Z,158.22
2023-05-10T08:35:05.745Z,166.62
2023-05-10T08:36:05.825Z,174.92
2023-05-10T08:37:05.771Z,185.80
2023-05-10T08:38:05.748Z,197.86
2023-05-10T08:39:07.740Z,212.45
2023-05-10T08:40:06.926Z,212.71
2023-05-10T08:41:05.777Z,213.82
2023-05-10T08:42:05.729Z,215.26
2023-05-10T08:43:05.874Z,219.04
2023-05-10T08:44:05.760Z,225.18
2023-05-10T08:45:05.914Z,228.79
2023-05-10T08:46:05.772Z,229.08
2023-05-10T08:47:05.842Z,228.33
2023-05-10T08:48:05.742Z,227.80
2023-05-10T08:49:05.735Z,228.94
2023-05-10T08:50:05.794Z,232.34
2023-05-10T08:51:05.860Z,227.07
2023-05-10T08:52:05.842Z,225.10
2023-05-10T08:53:05.916Z,226.81
2023-05-10T08:54:05.939Z,228.08
2023-05-10T08:55:07.838Z,234.23
2023-05-10T08:56:05.991Z,215.82
2023-05-10T08:57:06.072Z,223.20
2023-05-10T08:58:06.119Z,199.99
2023-05-10T08:59:06.073Z,181.77
2023-05-10T09:00:06.094Z,166.53
2023-05-10T09:01:06.172Z,158.49
2023-05-10T09:02:06.205Z,153.72
2023-05-10T09:03:06.296Z,154.14
2023-05-10T09:04:06.449Z,136.09
2023-05-10T09:05:06.455Z,161.91
2023-05-10T09:06:06.445Z,141.35
2023-05-10T09:07:06.432Z,145.69
2023-05-10T09:08:06.516Z,134.07
2023-05-10T09:09:06.596Z,119.82
2023-05-10T09:10:06.968Z,109.63
2023-05-10T09:11:06.723Z,106.01
2023-05-10T09:12:06.739Z,110.71
2023-05-10T09:13:06.819Z,109.39
2023-05-10T09:14:06.874Z,119.18
2023-05-10T09:15:06.974Z,107.81
2023-05-10T09:16:13.903Z,112.49
2023-05-10T09:17:08.034Z,112.58
2023-05-10T09:18:06.973Z,114.38
2023-05-10T09:19:07.079Z,122.68
2023-05-10T09:20:06.985Z,133.94
2023-05-10T09:21:06.983Z,151.15
2023-05-10T09:22:06.926Z,156.33
2023-05-10T09:23:06.952Z,162.95
2023-05-10T09:24:06.966Z,169.73
2023-05-10T09:25:06.928Z,176.10
2023-05-10T09:26:07.463Z,175.81
2023-05-10T09:27:06.931Z,163.08
2023-05-10T09:28:06.969Z,156.89
2023-05-10T09:29:06.972Z,161.07
2023-05-10T09:30:07.469Z,163.85
2023-05-10T09:31:07.460Z,164.81
2023-05-10T09:32:07.104Z,158.84
2023-05-10T09:33:07.129Z,160.58
2023-05-10T09:34:07.110Z,170.28
2023-05-10T09:35:07.127Z,176.33
2023-05-10T09:36:07.490Z,195.53
2023-05-10T09:37:07.202Z,192.99
2023-05-10T09:38:07.256Z,193.53
2023-05-10T09:39:07.249Z,190.87
2023-05-10T09:40:07.276Z,196.93
2023-05-10T09:41:07.333Z,181.02
2023-05-10T09:42:07.375Z,184.87
2023-05-10T09:43:07.393Z,170.90
2023-05-10T09:44:07.438Z,166.83
2023-05-10T09:45:07.489Z,160.17
2023-05-10T09:46:07.983Z,164.62
2023-05-10T09:47:07.576Z,172.42
2023-05-10T09:48:07.818Z,169.70
2023-05-10T09:49:07.650Z,153.61
2023-05-10T09:50:07.671Z,139.21
2023-05-10T09:51:07.735Z,130.08
2023-05-10T09:52:07.773Z,144.17
2023-05-10T09:53:07.826Z,123.86
2023-05-10T09:54:07.855Z,113.63
2023-05-10T09:55:07.921Z,104.63
2023-05-10T09:56:07.954Z,114.94
2023-05-10T09:57:08.004Z,113.86
2023-05-10T09:58:08.091Z,109.45
2023-05-10T09:59:08.081Z,111.23
2023-05-10T10:00:08.159Z,119.04
2023-05-10T10:01:08.269Z,118.78
2023-05-10T10:02:08.270Z,122.04
2023-05-10T10:03:08.381Z,129.36
2023-05-10T10:04:08.410Z,120.99
2023-05-10T10:05:08.509Z,129.26
2023-05-10T10:06:18.765Z,127.94
2023-05-10T10:07:09.503Z,128.26
2023-05-10T10:08:08.526Z,128.74
2023-05-10T10:09:08.521Z,129.44
2023-05-10T10:10:08.473Z,124.66
2023-05-10T10:11:08.472Z,130.36
2023-05-10T10:12:08.438Z,133.02
2023-05-10T10:13:08.418Z,125.59
2023-05-10T10:14:08.409Z,121.66
2023-05-10T10:15:08.484Z,121.95
2023-05-10T10:16:09.482Z,117.00
2023-05-10T10:17:09.110Z,121.06
2023-05-10T10:18:08.834Z,121.52
2023-05-10T10:19:08.726Z,113.27
2023-05-10T10:20:11.151Z,98.68
2023-05-10T10:21:09.033Z,0.00
2023-05-10T10:22:08.780Z,0.00
2023-05-10T10:23:08.740Z,0.00
2023-05-10T10:24:08.772Z,0.00
2023-05-10T10:25:08.742Z,0.00
2023-05-10T10:26:09.471Z,0.00
2023-05-10T10:27:08.810Z,0.00
2023-05-10T10:28:08.720Z,0.00
2023-05-10T10:29:08.856Z,25.00
2023-05-10T10:30:08.745Z,57.57
2023-05-10T10:31:08.768Z,83.12
2023-05-10T10:32:08.668Z,102.31
2023-05-10T10:33:16.872Z,122.57
2023-05-10T10:34:09.737Z,123.52
2023-05-10T10:35:08.661Z,128.85
2023-05-10T10:36:09.017Z,144.77
2023-05-10T10:37:08.723Z,177.36
2023-05-10T10:38:08.675Z,224.49
2023-05-10T10:39:08.648Z,239.27
2023-05-10T10:40:08.668Z,249.55
2023-05-10T10:41:08.633Z,249.73
2023-05-10T10:42:08.598Z,240.34
2023-05-10T10:43:08.614Z,228.30
2023-05-10T10:44:08.608Z,225.97
2023-05-10T10:45:08.627Z,219.85
2023-05-10T10:46:08.576Z,228.57
2023-05-10T10:47:08.626Z,221.07
2023-05-10T10:48:08.645Z,211.29
2023-05-10T10:49:08.660Z,214.97
2023-05-10T10:50:08.703Z,237.93
2023-05-10T10:51:10.128Z,231.20
2023-05-10T10:52:08.697Z,215.74
2023-05-10T10:53:08.672Z,214.85
2023-05-10T10:54:08.652Z,195.91
2023-05-10T10:55:08.649Z,193.66
2023-05-10T10:56:08.656Z,182.47
2023-05-10T10:57:08.635Z,144.71
2023-05-10T10:58:08.614Z,156.44
2023-05-10T10:59:08.613Z,137.95
2023-05-10T11:00:08.625Z,142.46
2023-05-10T11:01:08.657Z,154.98
2023-05-10T11:02:08.615Z,141.12
2023-05-10T11:03:08.632Z,150.94
2023-05-10T11:04:08.656Z,158.93
2023-05-10T11:05:08.572Z,157.78
2023-05-10T11:06:08.602Z,161.90
2023-05-10T11:07:08.548Z,160.82
2023-05-10T11:08:08.554Z,162.17
2023-05-10T11:09:08.554Z,141.66
2023-05-10T11:10:08.605Z,136.74
2023-05-10T11:11:08.714Z,158.88
2023-05-10T11:12:08.544Z,158.36
2023-05-10T11:13:08.533Z,163.12
2023-05-10T11:14:08.539Z,133.63
2023-05-10T11:15:08.495Z,105.92
2023-05-10T11:16:09.032Z,52.71
2023-05-10T11:17:08.627Z,45.69
2023-05-10T11:18:08.592Z,53.28
2023-05-10T11:19:08.603Z,47.93
2023-05-10T11:20:08.482Z,35.08
2023-05-10T11:21:08.457Z,33.36
2023-05-10T11:22:08.575Z,25.13
2023-05-10T11:23:08.438Z,25.00
2023-05-10T11:24:08.442Z,25.00
2023-05-10T11:25:08.409Z,23.67
2023-05-10T11:26:08.417Z,26.82
2023-05-10T11:27:08.443Z,25.00
2023-05-10T11:28:08.415Z,24.26
2023-05-10T11:29:08.389Z,27.18
2023-05-10T11:30:08.379Z,28.16
2023-05-10T11:31:08.406Z,25.46
2023-05-10T11:32:08.354Z,27.32
2023-05-10T11:33:08.428Z,26.60
2023-05-10T11:34:08.430Z,25.74
2023-05-10T11:35:08.360Z,25.00
2023-05-10T11:36:08.349Z,26.69
2023-05-10T11:37:08.328Z,26.74
2023-05-10T11:38:08.318Z,28.82
2023-05-10T11:39:08.359Z,26.05
2023-05-10T11:40:08.312Z,33.33
2023-05-10T11:41:08.404Z,36.40
2023-05-10T11:42:08.306Z,41.35
2023-05-10T11:43:08.309Z,37.45
2023-05-10T11:44:08.292Z,37.31
2023-05-10T11:45:08.275Z,36.51
2023-05-10T11:46:08.314Z,39.88
2023-05-10T11:47:08.327Z,41.59
2023-05-10T11:48:08.307Z,43.57
2023-05-10T11:49:08.250Z,42.72
2023-05-10T11:50:08.248Z,39.96
2023-05-10T11:51:08.499Z,37.76
2023-05-10T11:52:08.246Z,37.25
2023-05-10T11:53:08.265Z,43.36
2023-05-10T11:54:08.231Z,53.79
2023-05-10T11:55:08.234Z,54.06
2023-05-10T11:56:08.192Z,51.17
2023-05-10T11:57:08.195Z,49.58
2023-05-10T11:58:08.221Z,38.30
2023-05-10T11:59:08.173Z,38.97
2023-05-10T12:00:08.184Z,42.70
2023-05-10T12:01:08.275Z,43.03
2023-05-10T12:02:08.212Z,45.70
2023-05-10T12:03:08.227Z,44.51
2023-05-10T12:04:08.384Z,42.82
2023-05-10T12:05:08.242Z,43.53
2023-05-10T12:06:08.458Z,36.53
2023-05-10T12:07:08.116Z,40.65
2023-05-10T12:08:08.121Z,57.78
2023-05-10T12:09:08.165Z,68.05
2023-05-10T12:10:08.130Z,73.92
2023-05-10T12:11:08.462Z,86.08
2023-05-10T12:12:08.944Z,89.89
2023-05-10T12:13:08.068Z,106.87
2023-05-10T12:14:08.967Z,120.38
2023-05-10T12:15:08.067Z,131.13
2023-05-10T12:16:08.512Z,125.67
2023-05-10T12:17:08.027Z,131.63
2023-05-10T12:18:08.062Z,129.91
2023-05-10T12:19:08.131Z,136.10
2023-05-10T12:20:08.034Z,147.45
2023-05-10T12:21:08.077Z,146.89
2023-05-10T12:22:08.151Z,169.75
2023-05-10T12:23:08.213Z,190.91
2023-05-10T12:24:08.290Z,198.03
2023-05-10T12:25:08.317Z,200.47
2023-05-10T12:26:08.382Z,205.00
2023-05-10T12:27:08.424Z,208.49
2023-05-10T12:28:08.499Z,209.73
2023-05-10T12:29:08.560Z,209.32
2023-05-10T12:30:08.610Z,212.61
2023-05-10T12:31:08.996Z,216.02
2023-05-10T12:32:08.750Z,218.52
2023-05-10T12:33:08.814Z,219.76
2023-05-10T12:34:08.766Z,220.16
2023-05-10T12:35:08.806Z,226.14
2023-05-10T12:36:08.859Z,231.25
2023-05-10T12:37:08.940Z,235.48
2023-05-10T12:38:08.961Z,234.49
2023-05-10T12:39:08.996Z,237.62
2023-05-10T12:40:09.002Z,235.99
2023-05-10T12:41:09.102Z,244.88
2023-05-10T12:42:09.081Z,243.75
2023-05-10T12:43:09.107Z,242.25
2023-05-10T12:44:09.204Z,237.70
2023-05-10T12:45:09.257Z,235.83
2023-05-10T12:46:09.406Z,236.82
2023-05-10T12:47:09.292Z,239.18
2023-05-10T12:48:09.394Z,236.18
2023-05-10T12:49:09.920Z,234.87
2023-05-10T12:50:09.393Z,234.36
2023-05-10T12:51:09.428Z,232.06
2023-05-10T12:52:09.439Z,231.23
2023-05-10T12:53:09.500Z,230.57
2023-05-10T12:54:09.517Z,225.99
2023-05-10T12:55:09.582Z,229.10
2023-05-10T12:56:09.601Z,231.43
2023-05-10T12:57:09.678Z,232.62
2023-05-10T12:58:09.915Z,231.72
2023-05-10T12:59:09.720Z,229.43
2023-05-10T13:00:09.709Z,232.51
2023-05-10T13:01:10.070Z,232.00
2023-05-10T13:02:09.779Z,231.83
2023-05-10T13:03:09.991Z,229.19
2023-05-10T13:04:09.867Z,233.66
2023-05-10T13:05:09.980Z,234.30
2023-05-10T13:06:09.893Z,235.36
2023-05-10T13:07:09.979Z,234.46
2023-05-10T13:08:09.970Z,234.19
2023-05-10T13:09:10.032Z,236.28
2023-05-10T13:10:10.066Z,236.63
2023-05-10T13:11:10.083Z,239.87
2023-05-10T13:12:10.342Z,240.79
2023-05-10T13:13:10.107Z,242.57
2023-05-10T13:14:10.145Z,241.75
2023-05-10T13:15:10.174Z,244.77
2023-05-10T13:16:10.189Z,244.20
2023-05-10T13:17:10.614Z,242.30
2023-05-10T13:18:10.312Z,244.18
2023-05-10T13:19:10.474Z,246.15
2023-05-10T13:20:10.457Z,241.37
2023-05-10T13:21:10.399Z,243.68
2023-05-10T13:22:10.405Z,240.43
2023-05-10T13:23:10.421Z,241.00
2023-05-10T13:24:10.444Z,244.12
2023-05-10T13:25:10.521Z,246.11
2023-05-10T13:26:10.545Z,245.17
2023-05-10T13:27:10.568Z,245.98
2023-05-10T13:28:10.594Z,243.22
2023-05-10T13:29:10.688Z,242.48
2023-05-10T13:30:10.728Z,243.57
2023-05-10T13:31:10.748Z,240.19
2023-05-10T13:32:10.786Z,242.37
2023-05-10T13:33:10.787Z,245.57
2023-05-10T13:34:10.813Z,247.51
2023-05-10T13:35:10.866Z,246.84
2023-05-10T13:36:10.868Z,248.29
2023-05-10T13:37:10.911Z,241.33
2023-05-10T13:38:10.981Z,238.39
2023-05-10T13:39:10.984Z,240.24
2023-05-10T13:40:11.010Z,240.75
2023-05-10T13:41:11.049Z,241.27
2023-05-10T13:42:11.073Z,235.20
2023-05-10T13:43:11.125Z,237.75
2023-05-10T13:44:11.129Z,240.77
2023-05-10T13:45:11.142Z,239.87
2023-05-10T13:46:11.221Z,235.29
2023-05-10T13:47:11.201Z,232.49
2023-05-10T13:48:11.265Z,236.34
2023-05-10T13:49:11.274Z,237.98
2023-05-10T13:50:11.523Z,234.16
2023-05-10T13:51:11.358Z,235.20
2023-05-10T13:52:11.365Z,233.29
2023-05-10T13:53:11.387Z,229.16
2023-05-10T13:54:13.420Z,232.91
2023-05-10T13:55:11.503Z,230.83
2023-05-10T13:56:11.507Z,230.92
2023-05-10T13:57:11.542Z,227.98
2023-05-10T13:58:11.672Z,228.76
2023-05-10T13:59:11.640Z,231.07
2023-05-10T14:00:12.012Z,227.51
2023-05-10T14:01:11.665Z,226.23
2023-05-10T14:02:12.096Z,228.62
2023-05-10T14:03:11.933Z,227.39
2023-05-10T14:04:12.515Z,227.17
2023-05-10T14:05:12.411Z,226.58
2023-05-10T14:06:11.849Z,224.10
2023-05-10T14:07:11.975Z,224.84
2023-05-10T14:08:11.928Z,226.10
2023-05-10T14:09:11.976Z,224.96
2023-05-10T14:10:11.992Z,222.29
2023-05-10T14:11:12.031Z,222.18
2023-05-10T14:12:12.079Z,222.90
2023-05-10T14:13:12.098Z,223.36
2023-05-10T14:14:12.120Z,219.25
2023-05-10T14:15:12.182Z,221.00
2023-05-10T14:16:12.225Z,223.01
2023-05-10T14:17:12.648Z,217.78
2023-05-10T14:18:12.295Z,218.27
2023-05-10T14:19:12.298Z,216.11
2023-05-10T14:20:12.343Z,219.30
2023-05-10T14:21:12.379Z,213.21
2023-05-10T14:22:12.398Z,213.52
2023-05-10T14:23:12.523Z,217.10
2023-05-10T14:24:12.501Z,213.11
2023-05-10T14:25:12.566Z,212.76
2023-05-10T14:26:12.542Z,212.94
2023-05-10T14:27:12.603Z,213.25
2023-05-10T14:28:12.655Z,215.75
2023-05-10T14:29:12.841Z,212.27
2023-05-10T14:30:12.716Z,209.12
2023-05-10T14:31:12.754Z,210.66
2023-05-10T14:32:12.880Z,208.16
2023-05-10T14:33:12.856Z,229.35
2023-05-10T14:34:12.887Z,234.23
2023-05-10T14:35:13.649Z,226.53
2023-05-10T14:36:13.003Z,232.57
2023-05-10T14:37:13.007Z,233.83
2023-05-10T14:38:13.128Z,239.77
2023-05-10T14:39:13.111Z,236.22
2023-05-10T14:40:13.140Z,231.96
2023-05-10T14:41:13.187Z,237.65
2023-05-10T14:42:13.265Z,236.81
2023-05-10T14:43:13.307Z,242.08
2023-05-10T14:44:13.343Z,236.64
2023-05-10T14:45:13.385Z,235.73
2023-05-10T14:46:13.467Z,236.52
2023-05-10T14:47:13.486Z,238.67
2023-05-10T14:48:13.532Z,237.57
2023-05-10T14:49:13.591Z,239.10
2023-05-10T14:50:21.500Z,236.00
2023-05-10T14:51:14.624Z,236.16
2023-05-10T14:52:13.720Z,236.46
2023-05-10T14:53:13.604Z,237.01
2023-05-10T14:54:13.599Z,236.59
2023-05-10T14:55:13.599Z,239.10
2023-05-10T14:56:13.609Z,235.16
2023-05-10T14:57:13.593Z,235.18
2023-05-10T14:58:13.561Z,232.89
2023-05-10T14:59:13.594Z,230.57
2023-05-10T15:00:13.564Z,228.46
2023-05-10T15:01:13.632Z,226.47
2023-05-10T15:02:13.703Z,224.77
2023-05-10T15:03:13.754Z,228.51
2023-05-10T15:04:13.756Z,236.28
2023-05-10T15:05:13.872Z,236.28
2023-05-10T15:06:13.818Z,233.10
2023-05-10T15:07:13.882Z,231.94
2023-05-10T15:08:13.954Z,231.31
2023-05-10T15:09:14.023Z,235.34
2023-05-10T15:10:14.045Z,235.37
2023-05-10T15:11:14.133Z,234.08
2023-05-10T15:12:14.163Z,232.90
2023-05-10T15:13:14.216Z,236.17
2023-05-10T15:14:14.286Z,235.50
2023-05-10T15:15:14.423Z,235.94
2023-05-10T15:16:14.430Z,234.58
2023-05-10T15:17:14.472Z,237.23
2023-05-10T15:18:14.551Z,234.14
2023-05-10T15:19:14.564Z,231.58
2023-05-10T15:20:14.654Z,233.36
2023-05-10T15:21:14.782Z,230.91
2023-05-10T15:22:14.797Z,230.70
2023-05-10T15:23:14.878Z,234.97
2023-05-10T15:24:14.939Z,233.94
2023-05-10T15:25:15.262Z,233.99
2023-05-10T15:26:15.017Z,232.76
2023-05-10T15:27:15.096Z,231.04
2023-05-10T15:28:15.127Z,232.36
2023-05-10T15:29:15.293Z,231.34
2023-05-10T15:30:15.290Z,232.15
2023-05-10T15:31:15.355Z,233.24
2023-05-10T15:32:15.445Z,233.32
2023-05-10T15:33:15.433Z,230.31
2023-05-10T15:34:15.490Z,228.65
2023-05-10T15:35:15.678Z,231.06
2023-05-10T15:36:15.624Z,232.62
2023-05-10T15:37:15.682Z,234.15
2023-05-10T15:38:15.714Z,231.46
2023-05-10T15:39:15.823Z,232.52
2023-05-10T15:40:15.829Z,232.88
2023-05-10T15:41:15.898Z,230.44
2023-05-10T15:42:15.968Z,233.43
2023-05-10T15:43:16.030Z,231.27
2023-05-10T15:44:16.073Z,229.21
2023-05-10T15:45:16.500Z,227.52
2023-05-10T15:46:16.310Z,227.51
2023-05-10T15:47:16.281Z,228.58
2023-05-10T15:48:16.338Z,229.09
2023-05-10T15:49:16.410Z,226.88
2023-05-10T15:50:16.502Z,231.40
2023-05-10T15:51:16.557Z,229.32
2023-05-10T15:52:16.622Z,227.35
2023-05-10T15:53:16.637Z,228.30
2023-05-10T15:54:16.682Z,228.07
2023-05-10T15:55:16.987Z,229.73
2023-05-10T15:56:16.818Z,225.60
2023-05-10T15:57:16.873Z,225.55
2023-05-10T15:58:16.909Z,224.41
2023-05-10T15:59:16.974Z,229.67
2023-05-10T16:00:17.026Z,232.18
2023-05-10T16:01:17.082Z,228.87
2023-05-10T16:02:17.193Z,225.55
2023-05-10T16:03:17.145Z,224.97
2023-05-10T16:04:17.214Z,225.70
2023-05-10T16:05:17.401Z,224.96
2023-05-10T16:06:17.303Z,223.27
2023-05-10T16:07:17.376Z,222.22
2023-05-10T16:08:17.418Z,221.44
2023-05-10T16:09:17.438Z,221.43
2023-05-10T16:10:17.494Z,225.76
2023-05-10T16:11:17.564Z,231.46
2023-05-10T16:12:18.120Z,236.11
2023-05-10T16:13:17.680Z,233.91
2023-05-10T16:14:17.751Z,235.84
2023-05-10T16:15:17.970Z,234.27
2023-05-10T16:16:17.881Z,234.86
2023-05-10T16:17:17.953Z,238.59
2023-05-10T16:18:18.134Z,235.11
2023-05-10T16:19:18.112Z,233.65
2023-05-10T16:20:18.080Z,231.97
2023-05-10T16:21:18.093Z,229.57
2023-05-10T16:22:18.148Z,227.87
2023-05-10T16:23:18.197Z,227.79
2023-05-10T16:24:18.261Z,227.61
2023-05-10T16:25:18.525Z,224.27
2023-05-10T16:26:18.344Z,223.01
2023-05-10T16:27:18.361Z,221.74
2023-05-10T16:28:18.358Z,222.23
2023-05-10T16:29:18.374Z,225.87
2023-05-10T16:30:18.422Z,224.96
2023-05-10T16:31:18.450Z,225.24
2023-05-10T16:32:18.441Z,225.82
2023-05-10T16:33:18.503Z,224.27
2023-05-10T16:34:18.588Z,222.72
2023-05-10T16:35:18.800Z,217.47
2023-05-10T16:36:18.619Z,219.06
2023-05-10T16:37:18.645Z,219.02
2023-05-10T16:38:18.722Z,219.08
2023-05-10T16:39:18.720Z,217.37
2023-05-10T16:40:18.730Z,215.43
2023-05-10T16:41:18.728Z,218.25
2023-05-10T16:42:18.746Z,213.51
2023-05-10T16:43:18.696Z,214.29
2023-05-10T16:44:20.578Z,215.60
2023-05-10T16:45:18.911Z,214.43
2023-05-10T16:46:18.828Z,215.60
2023-05-10T16:47:18.905Z,216.03
2023-05-10T16:48:19.041Z,215.53
2023-05-10T16:49:18.989Z,214.50
2023-05-10T16:50:19.053Z,213.42
2023-05-10T16:51:19.066Z,217.76
2023-05-10T16:52:19.040Z,216.13
2023-05-10T16:53:19.014Z,216.08
2023-05-10T16:54:19.023Z,217.55
2023-05-10T16:55:19.408Z,217.87
2023-05-10T16:56:19.219Z,217.65
2023-05-10T16:57:19.287Z,220.13
2023-05-10T16:58:19.303Z,222.19
2023-05-10T16:59:19.271Z,219.30
2023-05-10T17:00:19.286Z,220.01
2023-05-10T17:01:19.295Z,219.33
2023-05-10T17:02:19.288Z,219.02
2023-05-10T17:03:19.532Z,218.04
2023-05-10T17:04:19.457Z,218.62
2023-05-10T17:05:19.669Z,217.38
2023-05-10T17:06:19.651Z,217.87
2023-05-10T17:07:19.775Z,216.61
2023-05-10T17:08:19.773Z,216.08
2023-05-10T17:09:19.748Z,219.52
2023-05-10T17:10:19.733Z,216.70
2023-05-10T17:11:19.757Z,215.08
2023-05-10T17:12:19.774Z,213.04
2023-05-10T17:13:19.744Z,210.98
2023-05-10T17:14:19.742Z,209.22
2023-05-10T17:15:20.007Z,209.01
2023-05-10T17:16:19.952Z,210.63
2023-05-10T17:17:19.895Z,210.72
2023-05-10T17:18:19.913Z,208.64
2023-05-10T17:19:19.913Z,206.62
2023-05-10T17:20:19.919Z,206.04
2023-05-10T17:21:19.897Z,207.03
2023-05-10T17:22:19.923Z,210.17
2023-05-10T17:23:19.978Z,203.17
2023-05-10T17:24:19.977Z,203.46
2023-05-10T17:25:20.672Z,198.94
2023-05-10T17:26:19.975Z,200.62
2023-05-10T17:27:19.984Z,201.62
2023-05-10T17:28:20.017Z,205.06
2023-05-10T17:29:20.032Z,200.72
2023-05-10T17:30:20.014Z,200.96
2023-05-10T17:31:20.111Z,197.93
2023-05-10T17:32:20.167Z,198.76
2023-05-10T17:33:20.362Z,196.92
2023-05-10T17:34:20.369Z,195.82
2023-05-10T17:35:20.490Z,194.57
2023-05-10T17:36:20.574Z,196.05
2023-05-10T17:37:20.662Z,197.28
2023-05-10T17:38:20.624Z,196.58
2023-05-10T17:39:20.619Z,198.54
2023-05-10T17:40:20.606Z,196.50
2023-05-10T17:41:20.642Z,195.24
2023-05-10T17:42:20.653Z,196.96
2023-05-10T17:43:20.674Z,195.81
2023-05-10T17:44:20.686Z,193.26
2023-05-10T17:45:20.689Z,191.17
2023-05-10T17:46:20.893Z,190.53
2023-05-10T17:47:20.743Z,191.56
2023-05-10T17:48:20.741Z,191.20
2023-05-10T17:49:20.761Z,190.13
2023-05-10T17:50:20.794Z,188.52
2023-05-10T17:51:20.787Z,188.49
2023-05-10T17:52:20.879Z,187.46
2023-05-10T17:53:20.902Z,185.85
2023-05-10T17:54:20.903Z,187.52
2023-05-10T17:55:20.933Z,188.97
2023-05-10T17:56:20.928Z,191.71
2023-05-10T17:57:20.932Z,191.02
2023-05-10T17:58:21.059Z,190.71
2023-05-10T17:59:21.053Z,189.71
2023-05-10T18:00:21.073Z,190.12
2023-05-10T18:01:21.113Z,189.44
2023-05-10T18:02:21.172Z,190.84
2023-05-10T18:03:21.110Z,192.15
2023-05-10T18:04:21.207Z,192.72
2023-05-10T18:05:21.488Z,190.77
2023-05-10T18:06:21.204Z,189.88
2023-05-10T18:07:21.220Z,188.86
2023-05-10T18:08:21.229Z,188.85
2023-05-10T18:09:21.245Z,189.91
2023-05-10T18:10:21.250Z,188.53
2023-05-10T18:11:21.338Z,187.17
2023-05-10T18:12:21.321Z,190.04
2023-05-10T18:13:21.350Z,190.95
2023-05-10T18:14:35.963Z,190.23
2023-05-10T18:15:22.368Z,190.46
2023-05-10T18:16:21.387Z,190.99
2023-05-10T18:17:21.332Z,191.47
2023-05-10T18:18:21.343Z,191.10
2023-05-10T18:19:21.313Z,191.82
2023-05-10T18:20:21.302Z,191.68
2023-05-10T18:21:21.321Z,193.95
2023-05-10T18:22:21.309Z,191.64
2023-05-10T18:23:21.518Z,190.73
2023-05-10T18:24:30.442Z,190.37
2023-05-10T18:25:22.272Z,190.53
2023-05-10T18:26:21.251Z,189.89
2023-05-10T18:27:21.292Z,188.08
2023-05-10T18:28:21.282Z,187.31
2023-05-10T18:29:21.290Z,182.43
2023-05-10T18:30:21.231Z,185.73
2023-05-10T18:31:21.261Z,183.89
2023-05-10T18:32:21.218Z,180.89
2023-05-10T18:33:21.214Z,178.85
2023-05-10T18:34:21.215Z,179.75
2023-05-10T18:35:21.486Z,177.12
2023-05-10T18:36:21.173Z,178.79
2023-05-10T18:37:21.186Z,177.81
2023-05-10T18:38:21.188Z,178.25
2023-05-10T18:39:21.175Z,180.28
2023-05-10T18:40:21.194Z,180.64
2023-05-10T18:41:21.137Z,180.83
2023-05-10T18:42:21.158Z,179.23
2023-05-10T18:43:21.137Z,179.84
2023-05-10T18:44:21.148Z,179.08
2023-05-10T18:45:21.112Z,176.17
2023-05-10T18:46:21.174Z,176.16
2023-05-10T18:47:21.222Z,176.84
2023-05-10T18:48:21.124Z,174.98
2023-05-10T18:49:21.091Z,174.51
2023-05-10T18:50:21.108Z,173.78
2023-05-10T18:51:21.165Z,174.62
2023-05-10T18:52:21.195Z,173.88
2023-05-10T18:53:21.176Z,173.98
2023-05-10T18:54:21.200Z,175.02
2023-05-10T18:55:21.214Z,173.95
2023-05-10T18:56:21.220Z,169.74
2023-05-10T18:57:21.250Z,169.24
2023-05-10T18:58:21.256Z,167.76
2023-05-10T18:59:21.303Z,162.66
2023-05-10T19:00:21.325Z,165.24
2023-05-10T19:01:21.406Z,165.84
2023-05-10T19:02:21.338Z,166.43
2023-05-10T19:03:21.399Z,165.76
2023-05-10T19:04:21.389Z,163.71
2023-05-10T19:05:21.417Z,164.95
2023-05-10T19:06:21.455Z,163.95
2023-05-10T19:07:21.434Z,162.64
2023-05-10T19:08:21.462Z,161.94
2023-05-10T19:09:21.482Z,161.52
2023-05-10T19:10:21.499Z,159.85
2023-05-10T19:11:21.520Z,162.56
2023-05-10T19:12:21.563Z,162.21
2023-05-10T19:13:21.581Z,159.88
2023-05-10T19:14:21.662Z,160.91
2023-05-10T19:15:22.156Z,161.84
2023-05-10T19:16:21.658Z,162.43
2023-05-10T19:17:22.626Z,160.44
2023-05-10T19:18:21.773Z,161.86
2023-05-10T19:19:24.701Z,160.55
2023-05-10T19:20:21.744Z,163.41
2023-05-10T19:21:24.762Z,164.65
2023-05-10T19:22:35.350Z,164.76
2023-05-10T19:23:22.680Z,164.89
2023-05-10T19:24:21.818Z,164.91
2023-05-10T19:25:21.696Z,165.63
2023-05-10T19:26:21.688Z,165.00
2023-05-10T19:27:21.662Z,163.60
2023-05-10T19:28:21.651Z,162.50
2023-05-10T19:29:21.624Z,162.77
2023-05-10T19:30:21.609Z,165.16